createdAt,value
2023-05-02T00:00:41.044Z,20.30
2023-05-02T00:03:08.166Z,22.63
2023-05-02T00:05:35.184Z,24.02
2023-05-02T00:08:01.706Z,26.00
2023-05-02T00:10:28.143Z,24.55
2023-05-02T00:12:54.666Z,25.88
2023-05-02T00:15:21.240Z,25.58
2023-05-02T00:17:47.769Z,26.00
2023-05-02T00:20:14.278Z,25.08
2023-05-02T00:22:40.706Z,26.40
2023-05-02T00:25:07.495Z,23.77
2023-05-02T00:27:34.164Z,27.02
2023-05-02T00:30:01.311Z,24.55
2023-05-02T00:32:28.703Z,25.92
2023-05-02T00:34:55.832Z,24.70
2023-05-02T00:37:25.950Z,23.63
2023-05-02T00:39:52.546Z,26.35
2023-05-02T00:42:19.062Z,25.58
2023-05-02T00:44:49.428Z,29.05
2023-05-02T00:47:16.098Z,27.30
2023-05-02T00:49:42.630Z,27.52
2023-05-02T00:52:09.649Z,27.33
2023-05-02T00:54:38.267Z,31.27
2023-05-02T00:57:07.355Z,28.73
2023-05-02T00:59:34.912Z,32.35
2023-05-02T01:02:31.897Z,27.08
2023-05-02T01:07:28.415Z,30.50
2023-05-02T01:10:04.160Z,29.83
2023-05-02T01:12:33.647Z,28.00
2023-05-02T01:15:02.213Z,25.70
2023-05-02T01:17:30.543Z,24.98
2023-05-02T01:20:02.608Z,27.15
2023-05-02T01:22:30.238Z,25.45
2023-05-02T01:25:18.134Z,24.77
2023-05-02T01:27:53.720Z,24.30
2023-05-02T01:30:21.410Z,23.25
2023-05-02T01:32:48.827Z,22.90
2023-05-02T01:35:16.590Z,22.75
2023-05-02T01:37:45.088Z,21.73
2023-05-02T01:40:13.572Z,22.25
2023-05-02T01:42:40.172Z,19.48
2023-05-02T01:45:07.378Z,21.60
2023-05-02T01:47:36.000Z,18.33
2023-05-02T01:50:03.805Z,18.02
2023-05-02T01:52:30.420Z,19.80
2023-05-02T01:54:58.803Z,21.30
2023-05-02T01:57:25.359Z,19.17
2023-05-02T01:59:52.775Z,19.58
2023-05-02T02:02:19.765Z,19.40
2023-05-02T02:04:47.383Z,19.90
2023-05-02T02:07:14.385Z,18.13
2023-05-02T02:09:41.194Z,18.95
2023-05-02T02:12:29.365Z,17.92
2023-05-02T02:15:14.764Z,17.38
2023-05-02T02:17:47.941Z,19.55
2023-05-02T02:20:15.136Z,17.88
2023-05-02T02:22:43.415Z,16.08
2023-05-02T02:25:11.572Z,14.65
2023-05-02T02:27:38.378Z,15.25
2023-05-02T02:30:05.100Z,13.05
2023-05-02T02:32:31.667Z,13.85
2023-05-02T02:34:59.488Z,11.98
2023-05-02T02:37:37.760Z,10.15
2023-05-02T02:40:04.835Z,8.73
2023-05-02T02:42:31.425Z,8.20
2023-05-02T02:45:00.860Z,7.28
2023-05-02T02:47:57.657Z,6.32
2023-05-02T02:50:30.300Z,4.40
2023-05-02T02:53:04.520Z,3.53
2023-05-02T02:55:43.148Z,3.08
2023-05-02T02:58:29.431Z,4.18
2023-05-02T03:01:02.848Z,5.43
2023-05-02T03:03:30.189Z,4.80
2023-05-02T03:05:57.235Z,7.97
2023-05-02T03:08:24.582Z,7.03
2023-05-02T03:10:51.424Z,5.65
2023-05-02T03:13:18.219Z,13.05
2023-05-02T03:15:51.757Z,11.65
2023-05-02T03:18:22.320Z,13.27
2023-05-02T03:20:48.782Z,14.57
2023-05-02T03:23:15.317Z,17.17
2023-05-02T03:25:42.847Z,13.07
2023-05-02T03:28:13.097Z,15.65
2023-05-02T03:30:42.487Z,15.20
2023-05-02T03:33:09.159Z,13.63
2023-05-02T03:35:36.814Z,11.63
2023-05-02T03:38:03.314Z,11.75
2023-05-02T03:40:29.754Z,12.63
2023-05-02T03:42:57.195Z,13.07
2023-05-02T03:45:29.256Z,16.85
2023-05-02T03:47:56.388Z,13.02
2023-05-02T03:50:23.444Z,17.05
2023-05-02T03:52:51.649Z,13.02
2023-05-02T03:55:23.392Z,15.02
2023-05-02T03:57:50.469Z,18.92
2023-05-02T04:00:17.622Z,16.60
2023-05-02T04:02:51.599Z,13.93
2023-05-02T04:05:21.732Z,16.05
2023-05-02T04:07:52.480Z,13.07
2023-05-02T04:10:18.900Z,13.60
2023-05-02T04:12:57.958Z,13.98
2023-05-02T04:15:25.430Z,16.00
2023-05-02T04:17:53.937Z,16.90
2023-05-02T04:20:20.899Z,13.82
2023-05-02T04:22:50.659Z,14.35
2023-05-02T04:25:17.283Z,13.43
2023-05-02T04:27:43.816Z,11.77
2023-05-02T04:30:13.706Z,10.35
2023-05-02T04:32:43.776Z,11.63
2023-05-02T04:35:11.591Z,15.15
2023-05-02T04:37:38.665Z,12.20
2023-05-02T04:40:06.267Z,12.27
2023-05-02T04:42:32.777Z,11.45
2023-05-02T04:45:10.764Z,15.38
2023-05-02T04:47:37.649Z,13.80
2023-05-02T04:50:06.493Z,11.40
2023-05-02T04:52:32.962Z,15.10
2023-05-02T04:54:59.477Z,12.27
2023-05-02T04:57:26.044Z,14.80
2023-05-02T04:59:56.100Z,10.23
2023-05-02T05:02:23.095Z,13.00
2023-05-02T05:07:37.728Z,12.80
2023-05-02T05:10:04.831Z,13.00
2023-05-02T05:12:38.946Z,13.75
2023-05-02T05:15:05.838Z,9.52
2023-05-02T05:17:34.569Z,14.05
2023-05-02T05:20:02.754Z,12.82
2023-05-02T05:22:29.984Z,14.90
2023-05-02T05:24:56.553Z,14.95
2023-05-02T05:27:28.368Z,14.45
2023-05-02T05:29:55.244Z,13.77
2023-05-02T05:32:22.075Z,16.38
2023-05-02T05:34:53.717Z,10.10
2023-05-02T05:37:22.357Z,10.32
2023-05-02T05:39:48.921Z,11.35
2023-05-02T05:42:15.779Z,14.40
2023-05-02T05:44:45.089Z,10.38
2023-05-02T05:47:12.228Z,9.63
2023-05-02T05:49:39.090Z,13.60
2023-05-02T05:52:08.434Z,10.05
2023-05-02T05:54:35.863Z,10.25
2023-05-02T05:57:03.560Z,13.95
2023-05-02T05:59:30.464Z,10.52
2023-05-02T06:01:57.783Z,8.20
2023-05-02T06:04:24.923Z,12.70
2023-05-02T06:06:54.341Z,11.70
2023-05-02T06:09:20.948Z,12.57
2023-05-02T06:11:47.480Z,8.25
2023-05-02T06:14:14.206Z,13.27
2023-05-02T06:16:42.075Z,12.73
2023-05-02T06:19:09.027Z,10.57
2023-05-02T06:21:38.666Z,10.57
2023-05-02T06:24:05.351Z,9.25
2023-05-02T06:26:32.005Z,9.88
2023-05-02T06:28:58.485Z,8.73
2023-05-02T06:31:25.031Z,8.07
2023-05-02T06:33:52.371Z,11.07
2023-05-02T06:36:18.874Z,9.30
2023-05-02T06:38:45.439Z,10.63
2023-05-02T06:41:17.366Z,8.43
2023-05-02T06:43:44.810Z,8.32
2023-05-02T06:46:11.319Z,6.30
2023-05-02T06:48:37.866Z,8.57
2023-05-02T06:51:04.596Z,9.65
2023-05-02T06:53:33.020Z,8.05
2023-05-02T06:56:00.363Z,7.07
2023-05-02T06:58:26.925Z,5.80
2023-05-02T07:00:53.416Z,7.80
2023-05-02T07:03:20.023Z,8.00
2023-05-02T07:05:46.579Z,6.32
2023-05-02T07:08:13.063Z,5.80
2023-05-02T07:10:39.579Z,6.65
2023-05-02T07:13:06.295Z,10.05
2023-05-02T07:15:32.853Z,5.72
2023-05-02T07:17:59.392Z,6.85
2023-05-02T07:20:26.140Z,6.07
2023-05-02T07:22:52.725Z,9.25
2023-05-02T07:25:19.211Z,9.40
2023-05-02T07:27:45.920Z,9.40
2023-05-02T07:30:12.831Z,4.47
2023-05-02T07:32:39.395Z,5.70
2023-05-02T07:35:06.664Z,6.45
2023-05-02T07:37:34.643Z,7.47
2023-05-02T07:40:01.917Z,7.15
2023-05-02T07:42:29.369Z,6.70
2023-05-02T07:44:55.993Z,5.47
2023-05-02T07:47:22.623Z,7.35
2023-05-02T07:49:52.805Z,7.22
2023-05-02T07:52:19.578Z,4.80
2023-05-02T07:54:47.659Z,4.70
2023-05-02T07:57:14.148Z,5.97
2023-05-02T07:59:40.633Z,5.38
2023-05-02T08:02:07.383Z,7.40
2023-05-02T08:04:34.400Z,6.80
2023-05-02T08:07:01.130Z,9.32
2023-05-02T08:09:27.676Z,4.95
2023-05-02T08:11:54.331Z,5.93
2023-05-02T08:14:20.889Z,7.65
2023-05-02T08:16:47.659Z,6.35
2023-05-02T08:19:15.054Z,6.45
2023-05-02T08:21:42.106Z,7.97
2023-05-02T08:24:08.625Z,6.85
2023-05-02T08:26:35.130Z,7.97
2023-05-02T08:29:03.200Z,7.88
2023-05-02T08:31:29.998Z,6.55
2023-05-02T08:33:56.575Z,8.63
2023-05-02T08:36:23.083Z,5.35
2023-05-02T08:38:49.640Z,8.35
2023-05-02T08:41:17.838Z,5.80
2023-05-02T08:43:44.990Z,7.38
2023-05-02T08:46:12.250Z,6.78
2023-05-02T08:48:40.226Z,7.00
2023-05-02T08:51:10.642Z,6.03
2023-05-02T08:53:37.629Z,5.47
2023-05-02T08:56:04.373Z,6.13
2023-05-02T08:58:31.093Z,5.22
2023-05-02T09:01:00.885Z,5.70
2023-05-02T09:03:33.981Z,6.68
2023-05-02T09:06:08.112Z,4.68
2023-05-02T09:08:35.582Z,5.60
2023-05-02T09:11:03.903Z,4.63
2023-05-02T09:13:37.724Z,3.90
2023-05-02T09:16:05.684Z,7.65
2023-05-02T09:18:33.392Z,5.75
2023-05-02T09:21:01.192Z,4.32
2023-05-02T09:23:34.516Z,5.05
2023-05-02T09:26:01.433Z,4.50
2023-05-02T09:28:41.461Z,5.68
2023-05-02T09:31:12.489Z,5.05
2023-05-02T09:33:39.338Z,4.78
2023-05-02T09:36:07.312Z,7.63
2023-05-02T09:38:33.873Z,4.15
2023-05-02T09:41:00.576Z,5.80
2023-05-02T09:43:27.097Z,5.57
2023-05-02T09:46:11.868Z,6.88
2023-05-02T09:48:53.563Z,4.50
2023-05-02T09:51:21.332Z,4.97
2023-05-02T09:53:48.105Z,5.00
2023-05-02T09:56:14.663Z,5.93
2023-05-02T09:58:42.924Z,3.08
2023-05-02T10:01:14.594Z,5.85
2023-05-02T10:03:41.441Z,2.35
2023-05-02T10:06:09.552Z,5.70
2023-05-02T10:08:36.590Z,6.53
2023-05-02T10:11:05.353Z,4.03
2023-05-02T10:13:32.922Z,8.38
2023-05-02T10:16:01.493Z,4.60
2023-05-02T10:18:43.472Z,5.65
2023-05-02T10:21:11.595Z,7.22
2023-05-02T10:23:41.241Z,4.78
2023-05-02T10:26:07.834Z,5.68
2023-05-02T10:28:34.456Z,5.40
2023-05-02T10:31:02.326Z,4.32
2023-05-02T10:33:28.948Z,5.78
2023-05-02T10:35:55.478Z,4.70
2023-05-02T10:38:22.547Z,5.55
2023-05-02T10:40:56.290Z,5.38
2023-05-02T10:43:27.322Z,4.25
2023-05-02T10:45:54.930Z,4.05
2023-05-02T10:48:25.714Z,5.45
2023-05-02T10:50:56.439Z,3.50
2023-05-02T10:53:40.477Z,3.83
2023-05-02T10:56:24.014Z,4.60
2023-05-02T10:58:51.436Z,4.25
2023-05-02T11:01:36.376Z,5.68
2023-05-02T11:04:04.059Z,4.93
2023-05-02T11:06:56.948Z,4.78
2023-05-02T11:09:23.501Z,3.67
2023-05-02T11:11:52.500Z,4.30
2023-05-02T11:14:31.124Z,4.53
2023-05-02T11:16:57.962Z,5.47
2023-05-02T11:19:24.954Z,7.57
2023-05-02T11:21:53.854Z,6.30
2023-05-02T11:24:42.537Z,5.85
2023-05-02T11:27:27.847Z,3.85
2023-05-02T11:29:57.391Z,3.80
2023-05-02T11:32:25.509Z,5.13
2023-05-02T11:34:52.859Z,5.80
2023-05-02T11:37:20.191Z,4.50
2023-05-02T11:39:46.864Z,6.10
2023-05-02T11:42:29.862Z,2.95
2023-05-02T11:45:00.609Z,3.08
2023-05-02T11:47:29.546Z,4.05
2023-05-02T11:49:56.683Z,4.13
2023-05-02T11:52:23.594Z,3.13
2023-05-02T11:54:53.681Z,4.03
2023-05-02T11:57:20.166Z,2.45
2023-05-02T11:59:50.938Z,3.92
2023-05-02T12:02:17.689Z,5.50
2023-05-02T12:04:47.177Z,5.97
2023-05-02T12:07:13.720Z,5.88
2023-05-02T12:09:53.397Z,5.55
2023-05-02T12:12:21.723Z,5.90
2023-05-02T12:14:50.887Z,5.80
2023-05-02T12:17:17.747Z,5.82
2023-05-02T12:19:44.389Z,4.63
2023-05-02T12:22:11.183Z,3.58
2023-05-02T12:24:37.916Z,7.15
2023-05-02T12:27:11.642Z,2.78
2023-05-02T12:29:39.163Z,3.30
2023-05-02T12:32:05.851Z,4.90
2023-05-02T12:34:33.012Z,3.53
2023-05-02T12:36:59.776Z,4.78
2023-05-02T12:39:42.930Z,5.22
2023-05-02T12:42:10.913Z,4.93
2023-05-02T12:44:41.465Z,4.85
2023-05-02T12:47:10.857Z,5.55
2023-05-02T12:49:50.582Z,4.88
2023-05-02T12:52:20.961Z,3.53
2023-05-02T12:54:48.371Z,4.78
2023-05-02T12:57:22.386Z,5.07
2023-05-02T12:59:51.384Z,3.63
2023-05-02T13:02:19.977Z,5.65
2023-05-02T13:04:46.540Z,5.28
2023-05-02T13:07:15.710Z,6.35
2023-05-02T13:09:42.563Z,5.15
2023-05-02T13:12:09.340Z,4.55
2023-05-02T13:14:36.025Z,3.88
2023-05-02T13:17:03.833Z,4.85
2023-05-02T13:19:31.610Z,4.22
2023-05-02T13:21:59.130Z,4.55
2023-05-02T13:24:25.879Z,5.18
2023-05-02T13:26:52.501Z,4.78
2023-05-02T13:29:19.253Z,4.13
2023-05-02T13:31:46.350Z,3.63
2023-05-02T13:34:12.858Z,4.65
2023-05-02T13:36:46.282Z,4.25
2023-05-02T13:39:13.991Z,4.97
2023-05-02T13:41:46.326Z,4.70
2023-05-02T13:44:12.860Z,7.75
2023-05-02T13:46:39.622Z,8.73
2023-05-02T13:49:06.343Z,6.13
2023-05-02T13:51:33.045Z,5.40
2023-05-02T13:54:00.014Z,6.05
2023-05-02T13:56:26.874Z,3.95
2023-05-02T13:58:53.559Z,6.22
2023-05-02T14:01:20.100Z,6.70
2023-05-02T14:03:46.895Z,4.03
2023-05-02T14:06:13.639Z,5.97
2023-05-02T14:08:40.270Z,3.58
2023-05-02T14:11:07.522Z,5.82
2023-05-02T14:13:34.031Z,4.97
2023-05-02T14:16:00.720Z,4.32
2023-05-02T14:18:27.232Z,6.95
2023-05-02T14:20:53.700Z,6.38
2023-05-02T14:23:20.751Z,5.30
2023-05-02T14:25:47.335Z,7.10
2023-05-02T14:28:14.380Z,5.18
2023-05-02T14:30:40.893Z,3.50
2023-05-02T14:33:07.497Z,5.47
2023-05-02T14:35:34.093Z,4.35
2023-05-02T14:38:01.225Z,3.50
2023-05-02T14:40:27.790Z,5.00
2023-05-02T14:42:54.396Z,4.40
2023-05-02T14:45:23.687Z,6.20
2023-05-02T14:47:50.673Z,5.72
2023-05-02T14:50:17.481Z,4.68
2023-05-02T14:52:46.407Z,4.20
2023-05-02T14:55:13.320Z,4.57
2023-05-02T14:57:40.004Z,3.80
2023-05-02T15:00:12.560Z,5.72
2023-05-02T15:02:39.572Z,3.40
2023-05-02T15:05:12.129Z,4.70
2023-05-02T15:07:39.175Z,3.67
2023-05-02T15:10:06.326Z,4.47
2023-05-02T15:12:32.903Z,6.25
2023-05-02T15:14:59.502Z,5.43
2023-05-02T15:17:26.094Z,3.97
2023-05-02T15:19:52.750Z,8.15
2023-05-02T15:22:19.593Z,4.22
2023-05-02T15:24:46.204Z,4.28
2023-05-02T15:27:12.889Z,5.20
2023-05-02T15:29:39.563Z,4.57
2023-05-02T15:32:06.235Z,3.22
2023-05-02T15:34:32.888Z,4.88
2023-05-02T15:36:59.637Z,5.20
2023-05-02T15:39:27.893Z,4.38
2023-05-02T15:41:54.354Z,3.63
2023-05-02T15:44:21.170Z,5.90
2023-05-02T15:46:47.736Z,5.18
2023-05-02T15:49:14.351Z,5.82
2023-05-02T15:51:40.880Z,3.90
2023-05-02T15:54:07.294Z,5.32
2023-05-02T15:56:33.825Z,4.55
2023-05-02T15:59:00.387Z,4.80
2023-05-02T16:01:26.879Z,5.30
2023-05-02T16:03:53.697Z,5.20
2023-05-02T16:06:20.301Z,7.03
2023-05-02T16:08:47.215Z,5.13
2023-05-02T16:11:13.708Z,6.30
2023-05-02T16:13:42.680Z,4.70
2023-05-02T16:16:09.226Z,3.65
2023-05-02T16:18:36.203Z,6.35
2023-05-02T16:21:03.682Z,5.80
2023-05-02T16:23:30.282Z,5.13
2023-05-02T16:25:57.559Z,5.40
2023-05-02T16:28:24.242Z,6.45
2023-05-02T16:30:51.076Z,4.75
2023-05-02T16:33:17.693Z,5.18
2023-05-02T16:35:44.275Z,4.63
2023-05-02T16:38:10.736Z,4.05
2023-05-02T16:40:37.373Z,5.60
2023-05-02T16:43:04.000Z,2.75
2023-05-02T16:45:30.568Z,5.13
2023-05-02T16:47:57.844Z,5.10
2023-05-02T16:50:24.709Z,3.90
2023-05-02T16:52:51.187Z,4.22
2023-05-02T16:55:17.889Z,3.50
2023-05-02T16:57:44.438Z,5.40
2023-05-02T17:00:15.449Z,5.88
2023-05-02T17:02:42.037Z,3.42
2023-05-02T17:05:09.613Z,4.20
2023-05-02T17:07:36.142Z,4.38
2023-05-02T17:10:04.390Z,3.75
2023-05-02T17:12:31.694Z,3.75
2023-05-02T17:14:58.395Z,9.70
2023-05-02T17:17:24.958Z,4.07
2023-05-02T17:19:51.515Z,7.10
2023-05-02T17:22:18.986Z,3.70
2023-05-02T17:24:48.343Z,4.55
2023-05-02T17:27:15.059Z,6.47
2023-05-02T17:29:42.104Z,6.20
2023-05-02T17:32:08.650Z,5.70
2023-05-02T17:34:36.695Z,6.43
2023-05-02T17:37:03.257Z,3.78
2023-05-02T17:39:29.868Z,8.90
2023-05-02T17:41:56.361Z,4.07
2023-05-02T17:44:23.507Z,6.35
2023-05-02T17:46:50.037Z,6.00
2023-05-02T17:49:16.883Z,3.42
2023-05-02T17:51:43.381Z,4.55
2023-05-02T17:54:09.892Z,5.93
2023-05-02T17:56:37.357Z,3.75
2023-05-02T17:59:04.983Z,4.13
2023-05-02T18:01:31.776Z,4.75
2023-05-02T18:03:59.070Z,3.45
2023-05-02T18:06:27.468Z,5.35
2023-05-02T18:08:54.141Z,3.50
2023-05-02T18:11:21.007Z,5.88
2023-05-02T18:13:49.483Z,5.28
2023-05-02T18:16:15.932Z,6.40
2023-05-02T18:18:42.562Z,4.82
2023-05-02T18:21:10.084Z,3.92
2023-05-02T18:23:36.668Z,5.55
2023-05-02T18:26:06.058Z,6.82
2023-05-02T18:28:33.033Z,2.78
2023-05-02T18:30:59.581Z,5.53
2023-05-02T18:33:26.183Z,8.10
2023-05-02T18:35:55.493Z,3.63
2023-05-02T18:38:21.974Z,4.70
2023-05-02T18:40:48.572Z,4.53
2023-05-02T18:43:15.074Z,5.97
2023-05-02T18:45:44.318Z,5.72
2023-05-02T18:48:12.006Z,3.53
2023-05-02T18:50:47.587Z,6.10
2023-05-02T18:53:15.227Z,3.45
2023-05-02T18:55:44.019Z,4.80
2023-05-02T18:58:10.904Z,2.47
2023-05-02T19:00:37.552Z,5.25
2023-05-02T19:03:04.206Z,3.78
2023-05-02T19:05:30.886Z,2.58
2023-05-02T19:07:57.364Z,2.92
2023-05-02T19:10:24.015Z,3.00
2023-05-02T19:12:50.636Z,3.22
2023-05-02T19:15:17.365Z,4.70
2023-05-02T19:17:44.479Z,6.38
2023-05-02T19:20:13.081Z,4.38
2023-05-02T19:22:42.405Z,4.18
2023-05-02T19:25:09.618Z,3.45
2023-05-02T19:27:36.141Z,5.82
2023-05-02T19:30:05.439Z,3.22
2023-05-02T19:32:31.964Z,3.33
2023-05-02T19:34:58.583Z,5.80
2023-05-02T19:37:27.839Z,3.25
2023-05-02T19:39:54.529Z,6.60
2023-05-02T19:42:21.002Z,8.10
2023-05-02T19:44:48.176Z,7.15
2023-05-02T19:47:14.607Z,4.70
2023-05-02T19:49:41.221Z,4.18
2023-05-02T19:52:07.840Z,4.70
2023-05-02T19:54:34.449Z,3.58
2023-05-02T19:57:02.686Z,3.58
2023-05-02T19:59:29.230Z,3.25
2023-05-02T20:01:55.814Z,4.63
2023-05-02T20:04:25.011Z,5.40
2023-05-02T20:06:51.619Z,4.88
2023-05-02T20:09:18.070Z,4.90
2023-05-02T20:11:44.533Z,4.60
2023-05-02T20:14:11.081Z,4.53
2023-05-02T20:16:37.527Z,3.45
2023-05-02T20:19:04.375Z,2.45
2023-05-02T20:21:32.527Z,3.35
2023-05-02T20:24:01.769Z,4.65
2023-05-02T20:26:31.197Z,4.47
2023-05-02T20:28:58.803Z,5.40
2023-05-02T20:31:26.079Z,5.75
2023-05-02T20:33:52.662Z,8.02
2023-05-02T20:36:21.818Z,3.33
2023-05-02T20:38:48.337Z,6.78
2023-05-02T20:41:14.908Z,6.13
2023-05-02T20:43:44.650Z,6.63
2023-05-02T20:46:12.266Z,5.18
2023-05-02T20:48:39.242Z,4.00
2023-05-02T20:51:05.879Z,2.72
2023-05-02T20:53:35.157Z,4.47
2023-05-02T20:56:04.565Z,4.75
2023-05-02T20:58:31.249Z,5.78
2023-05-02T21:01:00.683Z,6.68
2023-05-02T21:03:27.939Z,5.20
2023-05-02T21:05:59.621Z,5.60
2023-05-02T21:08:26.242Z,3.15
2023-05-02T21:10:53.098Z,4.85
2023-05-02T21:13:19.617Z,3.47
2023-05-02T21:15:48.494Z,4.93
2023-05-02T21:18:15.521Z,4.88
2023-05-02T21:20:42.080Z,4.10
2023-05-02T21:23:11.152Z,5.80
2023-05-02T21:25:38.205Z,3.67
2023-05-02T21:28:04.897Z,5.15
2023-05-02T21:30:32.631Z,6.32
2023-05-02T21:33:02.303Z,6.43
2023-05-02T21:35:33.144Z,4.40
2023-05-02T21:38:02.559Z,6.18
2023-05-02T21:40:31.458Z,4.50
2023-05-02T21:43:01.094Z,4.95
2023-05-02T21:45:27.850Z,7.57
2023-05-02T21:47:59.178Z,3.85
2023-05-02T21:50:25.911Z,3.78
2023-05-02T21:52:52.557Z,3.67
2023-05-02T21:55:19.356Z,5.05
2023-05-02T21:57:46.044Z,7.05
2023-05-02T22:00:33.531Z,4.88
2023-05-02T22:03:01.773Z,6.63
2023-05-02T22:05:28.399Z,3.90
2023-05-02T22:07:56.250Z,3.90
2023-05-02T22:10:24.847Z,7.07
2023-05-02T22:12:51.394Z,5.55
2023-05-02T22:15:17.927Z,4.90
2023-05-02T22:17:45.890Z,6.47
2023-05-02T22:20:15.185Z,5.43
2023-05-02T22:22:41.954Z,5.38
2023-05-02T22:25:08.737Z,5.10
2023-05-02T22:27:35.685Z,6.50
2023-05-02T22:30:02.624Z,5.28
2023-05-02T22:32:29.362Z,5.20
2023-05-02T22:34:55.956Z,4.32
2023-05-02T22:37:25.008Z,5.63
2023-05-02T22:39:51.552Z,5.63
2023-05-02T22:42:23.016Z,6.60
2023-05-02T22:44:54.338Z,5.72
2023-05-02T22:47:24.072Z,6.00
2023-05-02T22:49:52.369Z,5.32
2023-05-02T22:52:20.598Z,5.70
2023-05-02T22:54:50.688Z,3.90
2023-05-02T22:57:17.210Z,5.57
2023-05-02T22:59:43.856Z,5.47
2023-05-02T23:02:12.200Z,5.57
2023-05-02T23:04:41.534Z,4.53
2023-05-02T23:07:11.280Z,5.78
2023-05-02T23:09:42.365Z,4.95
2023-05-02T23:12:12.582Z,5.57
2023-05-02T23:14:39.147Z,5.30
2023-05-02T23:17:05.711Z,3.67
2023-05-02T23:19:32.154Z,7.40
2023-05-02T23:22:04.614Z,6.43
2023-05-02T23:24:31.404Z,4.40
2023-05-02T23:26:57.939Z,5.45
2023-05-02T23:29:27.087Z,7.13
2023-05-02T23:31:54.641Z,3.67
2023-05-02T23:34:21.935Z,5.22
2023-05-02T23:36:51.766Z,7.97
2023-05-02T23:39:18.484Z,6.95
2023-05-02T23:41:45.143Z,3.90
2023-05-02T23:44:11.685Z,7.60
2023-05-02T23:46:40.565Z,5.68
2023-05-02T23:49:07.173Z,5.00
2023-05-02T23:51:35.430Z,6.85
2023-05-02T23:54:01.928Z,5.53
2023-05-02T23:56:28.411Z,4.97
2023-05-02T23:58:55.236Z,5.53
